sensor_id;sensor_type;location;lat;lon;timestamp;P1;durP1;ratioP1;P2;durP2;ratioP2
70426;SDS011;57872;55.432;37.248;2023-02-15T00:03:38;4.23;;;1.50;;
70426;SDS011;57872;55.432;37.248;2023-02-15T00:08:38;4.37;;;1.20;;
70426;SDS011;57872;55.432;37.248;2023-02-15T00:13:39;3.47;;;1.30;;
70426;SDS011;57872;55.432;37.248;2023-02-15T00:18:43;7.53;;;1.60;;
70426;SDS011;57872;55.432;37.248;2023-02-15T00:23:44;5.77;;;1.30;;
70426;SDS011;57872;55.432;37.248;2023-02-15T00:28:45;4.43;;;1.60;;
70426;SDS011;57872;55.432;37.248;2023-02-15T00:33:46;4.43;;;1.60;;
70426;SDS011;57872;55.432;37.248;2023-02-15T00:43:56;4.20;;;1.30;;
70426;SDS011;57872;55.432;37.248;2023-02-15T00:48:59;4.43;;;1.40;;
70426;SDS011;57872;55.432;37.248;2023-02-15T00:54:00;4.57;;;1.63;;
70426;SDS011;57872;55.432;37.248;2023-02-15T00:59:03;6.73;;;1.30;;
70426;SDS011;57872;55.432;37.248;2023-02-15T01:04:08;6.90;;;2.37;;
70426;SDS011;57872;55.432;37.248;2023-02-15T01:09:14;8.37;;;1.50;;
70426;SDS011;57872;55.432;37.248;2023-02-15T01:14:20;4.93;;;1.40;;
70426;SDS011;57872;55.432;37.248;2023-02-15T01:19:21;5.83;;;1.73;;
70426;SDS011;57872;55.432;37.248;2023-02-15T01:24:22;8.50;;;1.50;;
70426;SDS011;57872;55.432;37.248;2023-02-15T01:29:38;6.57;;;1.60;;
70426;SDS011;57872;55.432;37.248;2023-02-15T01:34:40;6.73;;;1.73;;
70426;SDS011;57872;55.432;37.248;2023-02-15T01:39:55;4.70;;;1.50;;
70426;SDS011;57872;55.432;37.248;2023-02-15T01:45:03;6.77;;;1.60;;
70426;SDS011;57872;55.432;37.248;2023-02-15T01:50:30;5.33;;;1.90;;
70426;SDS011;57872;55.432;37.248;2023-02-15T01:56:06;5.97;;;1.30;;
70426;SDS011;57872;55.432;37.248;2023-02-15T02:01:29;5.65;;;1.73;;
70426;SDS011;57872;55.432;37.248;2023-02-15T02:06:32;5.13;;;1.47;;
70426;SDS011;57872;55.432;37.248;2023-02-15T02:11:46;4.00;;;1.40;;
70426;SDS011;57872;55.432;37.248;2023-02-15T02:28:20;8.63;;;1.60;;
70426;SDS011;57872;55.432;37.248;2023-02-15T02:33:59;3.50;;;1.40;;
70426;SDS011;57872;55.432;37.248;2023-02-15T02:39:20;5.10;;;1.40;;
70426;SDS011;57872;55.432;37.248;2023-02-15T02:44:26;3.93;;;1.40;;
70426;SDS011;57872;55.432;37.248;2023-02-15T02:49:36;6.90;;;1.57;;
70426;SDS011;57872;55.432;37.248;2023-02-15T02:55:54;3.80;;;1.60;;
70426;SDS011;57872;55.432;37.248;2023-02-15T03:01:05;6.33;;;1.70;;
70426;SDS011;57872;55.432;37.248;2023-02-15T03:06:16;5.20;;;1.40;;
70426;SDS011;57872;55.432;37.248;2023-02-15T03:17:58;4.20;;;1.20;;
70426;SDS011;57872;55.432;37.248;2023-02-15T03:36:49;6.93;;;1.60;;
70426;SDS011;57872;55.432;37.248;2023-02-15T03:43:20;6.93;;;1.45;;
70426;SDS011;57872;55.432;37.248;2023-02-15T03:49:02;5.13;;;1.40;;
70426;SDS011;57872;55.432;37.248;2023-02-15T04:00:21;11.93;;;1.53;;
70426;SDS011;57872;55.432;37.248;2023-02-15T04:30:51;5.27;;;1.47;;
70426;SDS011;57872;55.432;37.248;2023-02-15T04:43:00;6.60;;;2.70;;
70426;SDS011;57872;55.432;37.248;2023-02-15T04:48:10;5.23;;;1.80;;
70426;SDS011;57872;55.432;37.248;2023-02-15T04:54:16;3.70;;;1.55;;
70426;SDS011;57872;55.432;37.248;2023-02-15T05:00:33;8.07;;;1.60;;
70426;SDS011;57872;55.432;37.248;2023-02-15T05:06:04;8.33;;;1.70;;
70426;SDS011;57872;55.432;37.248;2023-02-15T06:19:12;11.70;;;2.27;;
70426;SDS011;57872;55.432;37.248;2023-02-15T06:30:11;8.60;;;1.83;;
70426;SDS011;57872;55.432;37.248;2023-02-15T06:35:35;8.67;;;2.03;;
70426;SDS011;57872;55.432;37.248;2023-02-15T06:40:38;5.40;;;1.70;;
70426;SDS011;57872;55.432;37.248;2023-02-15T06:45:54;7.80;;;2.50;;
70426;SDS011;57872;55.432;37.248;2023-02-15T07:02:55;12.30;;;4.43;;
70426;SDS011;57872;55.432;37.248;2023-02-15T07:07:59;10.83;;;2.43;;
70426;SDS011;57872;55.432;37.248;2023-02-15T07:19:04;14.17;;;2.90;;
70426;SDS011;57872;55.432;37.248;2023-02-15T07:30:40;6.17;;;1.90;;
70426;SDS011;57872;55.432;37.248;2023-02-15T07:42:30;10.43;;;2.73;;
70426;SDS011;57872;55.432;37.248;2023-02-15T07:47:45;10.90;;;2.60;;
70426;SDS011;57872;55.432;37.248;2023-02-15T08:00:00;8.07;;;2.67;;
70426;SDS011;57872;55.432;37.248;2023-02-15T08:05:44;8.03;;;2.87;;
70426;SDS011;57872;55.432;37.248;2023-02-15T08:16:28;9.83;;;3.50;;
70426;SDS011;57872;55.432;37.248;2023-02-15T08:46:35;6.83;;;2.70;;
70426;SDS011;57872;55.432;37.248;2023-02-15T08:52:26;9.70;;;2.95;;
70426;SDS011;57872;55.432;37.248;2023-02-15T08:58:29;8.83;;;3.10;;
70426;SDS011;57872;55.432;37.248;2023-02-15T09:09:37;12.17;;;3.27;;
70426;SDS011;57872;55.432;37.248;2023-02-15T09:14:41;7.43;;;2.47;;
70426;SDS011;57872;55.432;37.248;2023-02-15T09:25:52;10.43;;;3.13;;
70426;SDS011;57872;55.432;37.248;2023-02-15T09:31:06;10.00;;;2.60;;
70426;SDS011;57872;55.432;37.248;2023-02-15T09:54:16;7.00;;;2.27;;
70426;SDS011;57872;55.432;37.248;2023-02-15T10:05:08;8.50;;;2.40;;
70426;SDS011;57872;55.432;37.248;2023-02-15T10:11:05;6.80;;;2.47;;
70426;SDS011;57872;55.432;37.248;2023-02-15T10:45:03;6.43;;;2.67;;
70426;SDS011;57872;55.432;37.248;2023-02-15T10:55:18;8.47;;;2.53;;
70426;SDS011;57872;55.432;37.248;2023-02-15T11:06:11;7.73;;;2.30;;
70426;SDS011;57872;55.432;37.248;2023-02-15T11:17:43;6.97;;;2.30;;
70426;SDS011;57872;55.432;37.248;2023-02-15T11:22:49;9.27;;;2.50;;
70426;SDS011;57872;55.432;37.248;2023-02-15T11:27:54;7.83;;;2.60;;
70426;SDS011;57872;55.432;37.248;2023-02-15T11:32:56;8.40;;;3.07;;
70426;SDS011;57872;55.432;37.248;2023-02-15T11:38:01;7.77;;;3.43;;
70426;SDS011;57872;55.432;37.248;2023-02-15T11:48:52;6.53;;;2.03;;
70426;SDS011;57872;55.432;37.248;2023-02-15T11:53:53;6.90;;;2.70;;
70426;SDS011;57872;55.432;37.248;2023-02-15T11:58:55;7.50;;;2.77;;
70426;SDS011;57872;55.432;37.248;2023-02-15T12:04:01;7.40;;;2.70;;
70426;SDS011;57872;55.432;37.248;2023-02-15T12:09:17;10.53;;;2.90;;
70426;SDS011;57872;55.432;37.248;2023-02-15T12:14:26;8.43;;;2.70;;
70426;SDS011;57872;55.432;37.248;2023-02-15T12:20:03;8.10;;;2.80;;
70426;SDS011;57872;55.432;37.248;2023-02-15T12:25:22;7.30;;;2.60;;
70426;SDS011;57872;55.432;37.248;2023-02-15T12:35:35;6.30;;;2.53;;
70426;SDS011;57872;55.432;37.248;2023-02-15T12:40:36;3.63;;;1.50;;
70426;SDS011;57872;55.432;37.248;2023-02-15T12:45:38;8.33;;;2.57;;
70426;SDS011;57872;55.432;37.248;2023-02-15T12:50:40;6.63;;;2.50;;
70426;SDS011;57872;55.432;37.248;2023-02-15T12:56:04;6.57;;;2.50;;
70426;SDS011;57872;55.432;37.248;2023-02-15T13:07:01;6.50;;;2.00;;
70426;SDS011;57872;55.432;37.248;2023-02-15T13:12:23;7.30;;;2.27;;
70426;SDS011;57872;55.432;37.248;2023-02-15T13:17:31;8.03;;;2.53;;
70426;SDS011;57872;55.432;37.248;2023-02-15T13:22:44;7.55;;;2.50;;
70426;SDS011;57872;55.432;37.248;2023-02-15T13:34:10;6.03;;;2.20;;
70426;SDS011;57872;55.432;37.248;2023-02-15T13:50:29;5.67;;;2.43;;
70426;SDS011;57872;55.432;37.248;2023-02-15T14:06:26;4.90;;;1.77;;
70426;SDS011;57872;55.432;37.248;2023-02-15T14:23:48;6.97;;;2.20;;
70426;SDS011;57872;55.432;37.248;2023-02-15T14:34:51;8.03;;;2.73;;
70426;SDS011;57872;55.432;37.248;2023-02-15T14:57:21;7.37;;;2.67;;
70426;SDS011;57872;55.432;37.248;2023-02-15T15:02:56;7.13;;;3.07;;
70426;SDS011;57872;55.432;37.248;2023-02-15T15:07:54;5.60;;;2.47;;
70426;SDS011;57872;55.432;37.248;2023-02-15T15:13:33;6.20;;;2.20;;
70426;SDS011;57872;55.432;37.248;2023-02-15T15:25:41;7.93;;;2.60;;
70426;SDS011;57872;55.432;37.248;2023-02-15T15:30:56;7.73;;;2.37;;
70426;SDS011;57872;55.432;37.248;2023-02-15T15:59:28;6.43;;;2.00;;
70426;SDS011;57872;55.432;37.248;2023-02-15T16:04:32;8.67;;;2.63;;
70426;SDS011;57872;55.432;37.248;2023-02-15T16:09:34;5.27;;;2.23;;
70426;SDS011;57872;55.432;37.248;2023-02-15T16:14:37;8.63;;;2.50;;
70426;SDS011;57872;55.432;37.248;2023-02-15T16:19:40;6.83;;;2.40;;
70426;SDS011;57872;55.432;37.248;2023-02-15T16:36:36;6.27;;;1.97;;
70426;SDS011;57872;55.432;37.248;2023-02-15T16:41:46;5.77;;;1.93;;
70426;SDS011;57872;55.432;37.248;2023-02-15T16:52:43;4.93;;;1.80;;
70426;SDS011;57872;55.432;37.248;2023-02-15T16:58:50;6.17;;;2.13;;
70426;SDS011;57872;55.432;37.248;2023-02-15T17:17:01;4.80;;;1.83;;
70426;SDS011;57872;55.432;37.248;2023-02-15T17:22:39;5.03;;;1.80;;
70426;SDS011;57872;55.432;37.248;2023-02-15T17:28:01;5.90;;;2.20;;
70426;SDS011;57872;55.432;37.248;2023-02-15T17:33:35;6.03;;;2.00;;
70426;SDS011;57872;55.432;37.248;2023-02-15T17:44:08;5.82;;;2.25;;
70426;SDS011;57872;55.432;37.248;2023-02-15T17:55:28;6.20;;;2.40;;
70426;SDS011;57872;55.432;37.248;2023-02-15T18:07:31;4.70;;;1.93;;
70426;SDS011;57872;55.432;37.248;2023-02-15T18:13:10;5.40;;;2.43;;
70426;SDS011;57872;55.432;37.248;2023-02-15T18:18:38;7.83;;;2.30;;
70426;SDS011;57872;55.432;37.248;2023-02-15T18:49:09;6.03;;;2.20;;
70426;SDS011;57872;55.432;37.248;2023-02-15T18:54:21;5.07;;;2.20;;
70426;SDS011;57872;55.432;37.248;2023-02-15T18:59:38;6.60;;;2.38;;
70426;SDS011;57872;55.432;37.248;2023-02-15T19:04:40;5.03;;;1.90;;
70426;SDS011;57872;55.432;37.248;2023-02-15T19:09:58;4.75;;;2.00;;
70426;SDS011;57872;55.432;37.248;2023-02-15T19:15:28;5.97;;;2.30;;
70426;SDS011;57872;55.432;37.248;2023-02-15T19:20:40;5.60;;;2.10;;
70426;SDS011;57872;55.432;37.248;2023-02-15T19:36:59;5.07;;;2.13;;
70426;SDS011;57872;55.432;37.248;2023-02-15T19:42:00;5.63;;;2.43;;
70426;SDS011;57872;55.432;37.248;2023-02-15T19:47:10;4.97;;;2.10;;
70426;SDS011;57872;55.432;37.248;2023-02-15T19:52:17;6.23;;;2.23;;
70426;SDS011;57872;55.432;37.248;2023-02-15T19:57:21;5.30;;;2.10;;
70426;SDS011;57872;55.432;37.248;2023-02-15T20:02:23;5.00;;;2.03;;
70426;SDS011;57872;55.432;37.248;2023-02-15T20:07:25;5.63;;;2.43;;
70426;SDS011;57872;55.432;37.248;2023-02-15T20:12:27;6.30;;;2.40;;
70426;SDS011;57872;55.432;37.248;2023-02-15T20:17:31;6.17;;;2.30;;
70426;SDS011;57872;55.432;37.248;2023-02-15T20:27:45;5.10;;;2.03;;
70426;SDS011;57872;55.432;37.248;2023-02-15T20:32:50;6.00;;;2.50;;
70426;SDS011;57872;55.432;37.248;2023-02-15T20:37:52;6.23;;;2.20;;
70426;SDS011;57872;55.432;37.248;2023-02-15T20:42:55;6.00;;;2.28;;
70426;SDS011;57872;55.432;37.248;2023-02-15T20:47:56;7.77;;;2.37;;
70426;SDS011;57872;55.432;37.248;2023-02-15T20:52:59;6.37;;;2.60;;
70426;SDS011;57872;55.432;37.248;2023-02-15T20:58:32;5.77;;;2.30;;
70426;SDS011;57872;55.432;37.248;2023-02-15T21:04:02;6.97;;;2.43;;
70426;SDS011;57872;55.432;37.248;2023-02-15T21:09:49;6.77;;;3.23;;
70426;SDS011;57872;55.432;37.248;2023-02-15T21:14:54;9.13;;;2.93;;
70426;SDS011;57872;55.432;37.248;2023-02-15T22:03:59;6.80;;;2.90;;
70426;SDS011;57872;55.432;37.248;2023-02-15T22:10:18;6.10;;;2.83;;
70426;SDS011;57872;55.432;37.248;2023-02-15T22:16:43;6.47;;;2.57;;
70426;SDS011;57872;55.432;37.248;2023-02-15T22:48:19;6.10;;;2.40;;
70426;SDS011;57872;55.432;37.248;2023-02-15T22:54:49;6.00;;;2.30;;
70426;SDS011;57872;55.432;37.248;2023-02-15T23:01:25;5.97;;;2.20;;
70426;SDS011;57872;55.432;37.248;2023-02-15T23:06:48;6.07;;;2.63;;
70426;SDS011;57872;55.432;37.248;2023-02-15T23:12:01;5.33;;;2.00;;
70426;SDS011;57872;55.432;37.248;2023-02-15T23:17:05;8.13;;;2.50;;
70426;SDS011;57872;55.432;37.248;2023-02-15T23:23:10;6.13;;;2.47;;
70426;SDS011;57872;55.432;37.248;2023-02-15T23:28:57;7.00;;;2.50;;
70426;SDS011;57872;55.432;37.248;2023-02-15T23:52:24;5.53;;;2.33;;
70426;SDS011;57872;55.432;37.248;2023-02-15T23:58:25;4.90;;;1.90;;
